Time;durP1;ratioP1;P1;durP2;ratioP2;P2;SDS_P1;SDS_P2;PMS_P1;PMS_P2;Temp;Humidity;BMP_temperature;BMP_pressure;BME280_temperature;BME280_humidity;BME280_pressure;Samples;Min_cycle;Max_cycle;Signal;HPM_P1;HPM_P2
2022/12/10 00:00:23;;;;;;;12.20;6.53;;;;;;;;;;5061329;27;89616;-59
2022/12/10 00:02:52;;;;;;;8.97;6.43;;;;;;;;;;5043277;27;87590;-59
2022/12/10 00:05:20;;;;;;;13.47;8.33;;;;;;;;;;5042769;27;87071;-59
2022/12/10 00:07:50;;;;;;;13.33;6.60;;;;;;;;;;5042301;28;89057;-59
2022/12/10 00:10:18;;;;;;;13.77;7.90;;;;;;;;;;5043208;27;87715;-59
2022/12/10 00:12:47;;;;;;;11.40;6.47;;;;;;;;;;5052505;27;87070;-60
2022/12/10 00:15:16;;;;;;;10.13;6.83;;;;;;;;;;5063248;27;86270;-59
2022/12/10 00:17:44;;;;;;;9.50;5.67;;;;;;;;;;5062507;27;88498;-59
2022/12/10 00:20:12;;;;;;;9.33;6.13;;;;;;;;;;5059792;27;88936;-61
2022/12/10 00:22:41;;;;;;;12.53;6.73;;;;;;;;;;5059330;27;87949;-60
2022/12/10 00:25:10;;;;;;;8.57;6.60;;;;;;;;;;5058622;27;87026;-59
2022/12/10 00:27:39;;;;;;;10.53;6.37;;;;;;;;;;5062565;27;89186;-60
2022/12/10 00:30:07;;;;;;;6.93;5.60;;;;;;;;;;5062647;27;87675;-60
2022/12/10 00:32:37;;;;;;;10.17;6.80;;;;;;;;;;5062759;27;87096;-60
2022/12/10 00:35:05;;;;;;;8.87;6.50;;;;;;;;;;5062296;27;87748;-60
2022/12/10 00:37:34;;;;;;;10.83;7.10;;;;;;;;;;5059692;27;89030;-58
2022/12/10 00:40:02;;;;;;;9.57;5.33;;;;;;;;;;5042235;27;88457;-60
2022/12/10 00:42:32;;;;;;;9.03;6.10;;;;;;;;;;5041978;27;87057;-58
2022/12/10 00:45:00;;;;;;;11.10;6.47;;;;;;;;;;5041837;28;87204;-60
2022/12/10 00:47:28;;;;;;;9.37;5.23;;;;;;;;;;5042358;27;88793;-60
2022/12/10 00:49:57;;;;;;;9.23;5.23;;;;;;;;;;5042963;27;89213;-60
2022/12/10 00:52:25;;;;;;;11.20;5.53;;;;;;;;;;5041623;28;87162;-59
2022/12/10 00:54:53;;;;;;;181.40;42.27;;;;;;;;;;5054005;27;86984;-59
2022/12/10 00:57:22;;;;;;;891.63;286.47;;;;;;;;;;5060755;27;89116;-56
2022/12/10 00:59:51;;;;;;;789.87;267.00;;;;;;;;;;5058040;27;89268;-58
2022/12/10 01:02:20;;;;;;;755.53;235.87;;;;;;;;;;5060977;27;86915;-58
2022/12/10 01:04:49;;;;;;;676.37;216.70;;;;;;;;;;5060663;27;86341;-58
2022/12/10 01:07:17;;;;;;;629.70;191.00;;;;;;;;;;5062136;27;89055;-58
2022/12/10 01:09:45;;;;;;;569.30;171.43;;;;;;;;;;5060787;27;88857;-58
2022/12/10 01:12:13;;;;;;;511.80;146.07;;;;;;;;;;5058921;27;87993;-58
2022/12/10 01:14:42;;;;;;;482.80;134.63;;;;;;;;;;5050469;27;87312;-58
2022/12/10 01:17:11;;;;;;;430.47;122.47;;;;;;;;;;5060569;27;89285;-58
2022/12/10 01:19:40;;;;;;;375.67;110.17;;;;;;;;;;5068016;27;86997;-58
2022/12/10 01:22:08;;;;;;;378.30;102.87;;;;;;;;;;5081678;27;87038;-58
2022/12/10 01:24:36;;;;;;;321.97;89.67;;;;;;;;;;5080297;27;86993;-57
2022/12/10 01:27:05;;;;;;;318.47;84.43;;;;;;;;;;5081882;27;87685;-58
2022/12/10 01:29:33;;;;;;;268.10;71.50;;;;;;;;;;5082706;27;87926;-58
2022/12/10 01:32:01;;;;;;;232.43;67.13;;;;;;;;;;5073799;27;86873;-58
2022/12/10 01:34:31;;;;;;;231.33;61.17;;;;;;;;;;5061830;27;87066;-58
2022/12/10 01:36:59;;;;;;;225.33;57.83;;;;;;;;;;5061444;27;89868;-58
2022/12/10 01:39:27;;;;;;;174.50;51.97;;;;;;;;;;5061494;27;88707;-58
2022/12/10 01:41:56;;;;;;;163.87;49.20;;;;;;;;;;5061821;27;86989;-58
2022/12/10 01:44:43;;;;;;;171.03;46.23;;;;;;;;;;5061720;27;86888;-57
2022/12/10 01:47:11;;;;;;;160.53;45.30;;;;;;;;;;5062290;27;87875;-58
2022/12/10 01:49:41;;;;;;;147.53;43.40;;;;;;;;;;5061139;27;88731;-58
2022/12/10 01:52:10;;;;;;;157.87;43.13;;;;;;;;;;5041112;28;86888;-59
2022/12/10 01:54:39;;;;;;;141.63;39.00;;;;;;;;;;5049313;27;86222;-58
2022/12/10 01:57:08;;;;;;;121.90;34.93;;;;;;;;;;5061511;27;88913;-58
2022/12/10 01:59:37;;;;;;;116.27;33.07;;;;;;;;;;5061201;27;87847;-59
2022/12/10 02:02:06;;;;;;;108.27;36.57;;;;;;;;;;5060976;27;87716;-58
2022/12/10 02:04:35;;;;;;;107.30;31.37;;;;;;;;;;5061725;27;87128;-58
2022/12/10 02:07:08;;;;;;;103.43;27.60;;;;;;;;;;5061453;27;88957;-58
2022/12/10 02:09:36;;;;;;;97.63;31.40;;;;;;;;;;5067459;27;87897;-58
2022/12/10 02:12:08;;;;;;;92.83;29.03;;;;;;;;;;5062559;27;87150;-58
2022/12/10 02:14:38;;;;;;;90.87;25.90;;;;;;;;;;5061089;27;87025;-58
2022/12/10 02:17:08;;;;;;;80.13;24.70;;;;;;;;;;5059620;27;88738;-59
2022/12/10 02:19:41;;;;;;;72.40;26.73;;;;;;;;;;5073732;27;87618;-58
2022/12/10 02:22:10;;;;;;;79.97;24.63;;;;;;;;;;5061163;27;87102;-59
2022/12/10 02:24:39;;;;;;;60.67;23.60;;;;;;;;;;5060947;27;86958;-58
2022/12/10 02:27:09;;;;;;;73.20;24.43;;;;;;;;;;5058459;27;90306;-59
2022/12/10 02:29:39;;;;;;;71.73;21.83;;;;;;;;;;5060240;27;88451;-59
2022/12/10 02:32:08;;;;;;;67.87;22.27;;;;;;;;;;5059808;27;87016;-58
2022/12/10 02:34:37;;;;;;;73.83;21.53;;;;;;;;;;5072838;27;86994;-60
2022/12/10 02:37:05;;;;;;;61.33;20.67;;;;;;;;;;5063922;27;89294;-60
2022/12/10 02:39:35;;;;;;;51.17;18.13;;;;;;;;;;5063442;27;88915;-60
2022/12/10 02:42:03;;;;;;;53.87;17.93;;;;;;;;;;5064021;27;87090;-60
2022/12/10 02:44:32;;;;;;;51.17;17.37;;;;;;;;;;5063050;27;86327;-59
2022/12/10 02:47:01;;;;;;;45.50;16.07;;;;;;;;;;5061983;27;89249;-59
2022/12/10 02:49:30;;;;;;;41.43;14.60;;;;;;;;;;5062008;27;87803;-59
2022/12/10 02:51:58;;;;;;;38.93;15.33;;;;;;;;;;5062216;27;88450;-58
2022/12/10 02:54:39;;;;;;;44.33;13.37;;;;;;;;;;5062687;27;87000;-58
2022/12/10 02:57:16;;;;;;;37.93;14.80;;;;;;;;;;5061583;27;89139;-58
2022/12/10 02:59:48;;;;;;;33.70;11.77;;;;;;;;;;5061941;27;88771;-58
2022/12/10 03:02:18;;;;;;;36.93;12.97;;;;;;;;;;5061541;27;87058;-58
2022/12/10 03:04:48;;;;;;;34.93;12.03;;;;;;;;;;5062521;27;87027;-58
2022/12/10 03:07:16;;;;;;;28.10;9.50;;;;;;;;;;5061852;27;88996;-58
2022/12/10 03:09:47;;;;;;;25.73;10.43;;;;;;;;;;5061503;27;87977;-58
2022/12/10 03:12:17;;;;;;;22.90;9.83;;;;;;;;;;5062692;27;87186;-58
2022/12/10 03:14:45;;;;;;;29.77;9.30;;;;;;;;;;5062572;27;87142;-58
2022/12/10 03:17:13;;;;;;;22.33;8.47;;;;;;;;;;5061818;27;89977;-58
2022/12/10 03:19:44;;;;;;;17.67;8.27;;;;;;;;;;5062521;27;89794;-58
2022/12/10 03:22:13;;;;;;;23.10;8.43;;;;;;;;;;5062193;27;86878;-58
2022/12/10 03:24:41;;;;;;;19.93;7.33;;;;;;;;;;5062556;27;87223;-58
2022/12/10 03:27:10;;;;;;;21.73;8.13;;;;;;;;;;5062070;27;88954;-58
2022/12/10 03:29:39;;;;;;;20.60;7.87;;;;;;;;;;5062112;27;88896;-58
2022/12/10 03:32:07;;;;;;;17.80;6.13;;;;;;;;;;5062317;27;87064;-58
2022/12/10 03:34:35;;;;;;;14.77;6.30;;;;;;;;;;5063060;27;86299;-58
2022/12/10 03:37:05;;;;;;;21.60;7.03;;;;;;;;;;5062240;27;89185;-58
2022/12/10 03:39:34;;;;;;;15.13;5.87;;;;;;;;;;5061974;27;89335;-58
2022/12/10 03:42:02;;;;;;;19.37;7.27;;;;;;;;;;5062273;27;87873;-58
2022/12/10 03:44:30;;;;;;;13.77;5.97;;;;;;;;;;5014892;27;1330612;-58
2022/12/10 03:46:59;;;;;;;14.37;6.27;;;;;;;;;;5063051;27;89028;-58
2022/12/10 03:49:27;;;;;;;14.80;5.70;;;;;;;;;;5062706;27;89054;-58
2022/12/10 03:51:55;;;;;;;9.63;4.33;;;;;;;;;;5046455;27;87048;-58
2022/12/10 03:54:25;;;;;;;12.70;5.20;;;;;;;;;;5062784;27;87857;-58
2022/12/10 03:56:54;;;;;;;10.13;4.67;;;;;;;;;;5062562;27;89124;-58
2022/12/10 03:59:22;;;;;;;12.30;4.40;;;;;;;;;;5063389;27;86973;-58
2022/12/10 04:01:50;;;;;;;11.27;4.50;;;;;;;;;;5063000;27;87096;-58
2022/12/10 04:04:19;;;;;;;11.87;5.37;;;;;;;;;;5062041;27;87067;-58
2022/12/10 04:06:48;;;;;;;9.67;4.43;;;;;;;;;;5061626;27;90190;-58
2022/12/10 04:09:16;;;;;;;9.63;5.23;;;;;;;;;;5062800;27;89806;-58
2022/12/10 04:11:46;;;;;;;10.53;4.63;;;;;;;;;;5063164;27;87042;-58
2022/12/10 04:17:00;;;;;;;9.43;3.87;;;;;;;;;;5062386;27;88077;-58
2022/12/10 04:19:29;;;;;;;10.23;4.43;;;;;;;;;;5062312;27;88789;-58
2022/12/10 04:27:31;;;;;;;7.17;3.63;;;;;;;;;;5062651;27;88160;-58
2022/12/10 04:30:00;;;;;;;11.30;4.07;;;;;;;;;;5062128;27;87861;-58
2022/12/10 04:32:28;;;;;;;5.67;3.20;;;;;;;;;;5061871;27;88100;-58
2022/12/10 04:34:57;;;;;;;8.47;3.47;;;;;;;;;;5061883;27;87213;-58
2022/12/10 04:37:27;;;;;;;6.83;3.03;;;;;;;;;;5062034;27;88008;-58
2022/12/10 04:39:55;;;;;;;9.63;3.40;;;;;;;;;;5062165;27;87672;-58
2022/12/10 04:42:24;;;;;;;5.30;2.70;;;;;;;;;;5062034;27;87056;-58
2022/12/10 04:44:53;;;;;;;4.37;3.03;;;;;;;;;;5061736;27;87337;-58
2022/12/10 04:47:22;;;;;;;5.80;3.50;;;;;;;;;;5061647;27;91025;-58
2022/12/10 04:49:50;;;;;;;6.00;3.27;;;;;;;;;;5061909;27;87826;-58
2022/12/10 04:52:18;;;;;;;6.50;2.70;;;;;;;;;;5061081;27;87135;-58
2022/12/10 04:54:46;;;;;;;6.40;3.20;;;;;;;;;;5062310;27;87080;-60
2022/12/10 04:57:15;;;;;;;4.30;2.80;;;;;;;;;;5061221;27;88806;-58
2022/12/10 04:59:43;;;;;;;5.13;2.53;;;;;;;;;;5061156;27;88741;-58
2022/12/10 05:02:13;;;;;;;9.80;2.73;;;;;;;;;;5060856;27;87051;-58
2022/12/10 05:04:41;;;;;;;6.57;3.53;;;;;;;;;;5060905;27;87156;-58
2022/12/10 05:07:09;;;;;;;9.23;3.27;;;;;;;;;;5061439;27;88043;-58
2022/12/10 05:09:39;;;;;;;4.10;2.37;;;;;;;;;;5061400;27;88959;-58
2022/12/10 05:12:07;;;;;;;6.60;2.97;;;;;;;;;;5061044;27;86966;-59
2022/12/10 05:14:35;;;;;;;5.17;2.53;;;;;;;;;;5060328;27;86304;-58
2022/12/10 05:17:04;;;;;;;4.07;3.03;;;;;;;;;;5060273;27;88856;-58
2022/12/10 05:19:33;;;;;;;7.93;3.27;;;;;;;;;;5061312;27;88852;-58
2022/12/10 05:24:47;;;;;;;4.20;2.67;;;;;;;;;;5061586;27;87048;-58
2022/12/10 05:27:16;;;;;;;5.17;2.20;;;;;;;;;;5060745;27;87610;-58
2022/12/10 05:29:44;;;;;;;3.63;2.67;;;;;;;;;;5061819;27;88704;-58
2022/12/10 05:32:12;;;;;;;6.30;3.43;;;;;;;;;;5061886;27;87067;-60
2022/12/10 05:34:42;;;;;;;7.13;2.73;;;;;;;;;;5061926;27;86952;-58
2022/12/10 05:37:10;;;;;;;5.33;2.87;;;;;;;;;;5061245;27;89692;-58
2022/12/10 05:39:38;;;;;;;6.93;2.77;;;;;;;;;;5061664;27;87816;-58
2022/12/10 05:42:07;;;;;;;3.67;2.37;;;;;;;;;;5061318;27;87040;-58
2022/12/10 05:44:35;;;;;;;5.00;2.33;;;;;;;;;;5060808;27;87169;-58
2022/12/10 05:47:03;;;;;;;5.03;2.57;;;;;;;;;;5060825;27;90039;-59
2022/12/10 05:49:32;;;;;;;3.30;2.00;;;;;;;;;;5060914;27;89528;-58
2022/12/10 05:52:01;;;;;;;3.20;2.27;;;;;;;;;;5060970;27;87144;-58
2022/12/10 05:54:30;;;;;;;2.93;2.67;;;;;;;;;;5061062;27;87087;-58
2022/12/10 05:56:58;;;;;;;3.47;2.53;;;;;;;;;;5060229;27;87834;-58
2022/12/10 05:59:26;;;;;;;3.83;2.57;;;;;;;;;;5060594;27;87637;-58
2022/12/10 06:01:54;;;;;;;3.80;1.87;;;;;;;;;;5060946;27;86942;-58
2022/12/10 06:04:23;;;;;;;4.30;2.40;;;;;;;;;;5061630;27;86154;-59
2022/12/10 06:06:51;;;;;;;4.13;2.17;;;;;;;;;;5060594;27;89980;-59
2022/12/10 06:09:21;;;;;;;5.20;2.50;;;;;;;;;;5060373;27;88754;-58
2022/12/10 06:11:49;;;;;;;9.43;2.53;;;;;;;;;;5060157;27;88033;-58
2022/12/10 06:14:17;;;;;;;4.70;2.10;;;;;;;;;;5060844;27;87034;-59
2022/12/10 06:16:46;;;;;;;4.03;2.10;;;;;;;;;;5060587;27;88093;-59
2022/12/10 06:19:14;;;;;;;7.43;2.60;;;;;;;;;;5061200;27;87908;-59
2022/12/10 06:21:42;;;;;;;4.93;2.33;;;;;;;;;;5060463;27;87074;-58
2022/12/10 06:24:10;;;;;;;3.90;2.10;;;;;;;;;;5060698;27;87018;-59
2022/12/10 06:26:40;;;;;;;3.80;2.20;;;;;;;;;;5060227;27;88885;-59
2022/12/10 06:29:08;;;;;;;3.17;2.00;;;;;;;;;;5061073;27;88847;-59
2022/12/10 06:31:37;;;;;;;2.73;1.83;;;;;;;;;;5060361;27;86966;-59
2022/12/10 06:34:05;;;;;;;4.97;3.10;;;;;;;;;;5060072;27;87184;-59
2022/12/10 06:36:33;;;;;;;4.33;2.60;;;;;;;;;;5059732;27;89102;-59
2022/12/10 06:39:02;;;;;;;5.73;2.50;;;;;;;;;;5060254;27;89917;-59
2022/12/10 06:41:30;;;;;;;4.03;2.60;;;;;;;;;;5060944;27;86989;-59
2022/12/10 06:44:00;;;;;;;3.90;2.90;;;;;;;;;;5061208;27;87030;-60
2022/12/10 06:46:28;;;;;;;2.20;1.87;;;;;;;;;;5073551;27;87888;-59
2022/12/10 06:48:57;;;;;;;1.33;1.23;;;;;;;;;;5072408;27;88814;-59
2022/12/10 06:51:25;;;;;;;4.13;2.00;;;;;;;;;;5061088;27;86921;-59
2022/12/10 06:53:54;;;;;;;4.17;1.80;;;;;;;;;;5068973;27;86272;-59
2022/12/10 06:56:22;;;;;;;3.70;1.80;;;;;;;;;;5080692;27;89062;-59
2022/12/10 06:58:50;;;;;;;5.90;2.93;;;;;;;;;;5061221;27;88651;-60
2022/12/10 07:01:20;;;;;;;3.27;2.03;;;;;;;;;;5060666;27;89966;-59
2022/12/10 07:03:49;;;;;;;3.83;2.60;;;;;;;;;;5060268;27;87004;-59
2022/12/10 07:06:17;;;;;;;7.57;3.10;;;;;;;;;;5060237;27;88014;-59
2022/12/10 07:08:46;;;;;;;3.90;2.10;;;;;;;;;;5059938;27;87713;-59
2022/12/10 07:11:15;;;;;;;5.60;2.30;;;;;;;;;;5060565;27;87124;-59
2022/12/10 07:13:43;;;;;;;4.70;2.50;;;;;;;;;;5061995;27;87088;-59
2022/12/10 07:16:14;;;;;;;4.20;2.20;;;;;;;;;;5079165;27;89312;-59
2022/12/10 07:18:44;;;;;;;3.67;2.00;;;;;;;;;;5067163;27;88862;-59
2022/12/10 07:21:19;;;;;;;4.50;1.70;;;;;;;;;;5074207;27;87338;-59
2022/12/10 07:23:48;;;;;;;2.40;1.60;;;;;;;;;;5067026;27;87046;-59
2022/12/10 07:26:16;;;;;;;3.33;2.10;;;;;;;;;;5071860;27;88760;-59
2022/12/10 07:28:44;;;;;;;3.97;1.93;;;;;;;;;;5064211;27;88941;-60
2022/12/10 07:31:20;;;;;;;3.47;1.70;;;;;;;;;;5063756;27;87179;-59
2022/12/10 07:33:50;;;;;;;2.87;1.70;;;;;;;;;;5064273;27;87009;-59
2022/12/10 07:36:18;;;;;;;3.80;2.20;;;;;;;;;;5062990;27;88112;-59
2022/12/10 07:38:47;;;;;;;3.00;2.03;;;;;;;;;;5047609;27;88423;-58
2022/12/10 07:41:15;;;;;;;4.40;1.93;;;;;;;;;;5050187;27;87039;-60
2022/12/10 07:43:44;;;;;;;3.37;2.27;;;;;;;;;;5062003;27;86301;-60
2022/12/10 07:46:13;;;;;;;2.27;2.07;;;;;;;;;;5061638;27;89204;-59
2022/12/10 07:48:41;;;;;;;2.47;1.40;;;;;;;;;;5075917;27;87771;-61
2022/12/10 07:51:11;;;;;;;1.43;1.33;;;;;;;;;;5061292;27;88062;-59
2022/12/10 07:53:39;;;;;;;3.87;2.10;;;;;;;;;;5055773;27;87416;-59
2022/12/10 07:56:08;;;;;;;2.40;1.70;;;;;;;;;;5043898;27;87936;-59
2022/12/10 07:58:36;;;;;;;2.83;1.90;;;;;;;;;;5046345;27;87804;-59
2022/12/10 08:01:08;;;;;;;3.20;1.63;;;;;;;;;;5063044;27;87077;-59
2022/12/10 08:03:36;;;;;;;2.50;2.17;;;;;;;;;;5076977;27;87220;-58
2022/12/10 08:06:05;;;;;;;2.57;2.00;;;;;;;;;;5053694;27;89009;-58
2022/12/10 08:08:35;;;;;;;4.17;1.97;;;;;;;;;;5042329;28;87443;-59
2022/12/10 08:11:03;;;;;;;2.87;1.70;;;;;;;;;;5042543;27;88849;-60
2022/12/10 08:13:32;;;;;;;2.23;1.50;;;;;;;;;;5043094;27;86993;-60
2022/12/10 08:16:02;;;;;;;3.37;1.93;;;;;;;;;;5041025;28;90326;-59
2022/12/10 08:18:31;;;;;;;2.00;1.80;;;;;;;;;;5041474;27;89894;-61
2022/12/10 08:20:59;;;;;;;1.40;1.23;;;;;;;;;;5050977;27;87673;-59
2022/12/10 08:23:28;;;;;;;2.60;1.73;;;;;;;;;;5083525;27;87055;-59
2022/12/10 08:25:57;;;;;;;3.10;1.60;;;;;;;;;;5066397;27;89456;-59
2022/12/10 08:28:26;;;;;;;2.97;2.03;;;;;;;;;;5048105;27;87059;-59
2022/12/10 08:30:54;;;;;;;3.33;2.00;;;;;;;;;;5060697;27;87150;-59
2022/12/10 08:33:22;;;;;;;2.77;2.03;;;;;;;;;;5048220;27;86243;-59
2022/12/10 08:35:51;;;;;;;2.27;1.57;;;;;;;;;;5042183;27;88351;-59
2022/12/10 08:38:19;;;;;;;3.53;2.43;;;;;;;;;;5043135;27;89125;-59
2022/12/10 08:40:48;;;;;;;2.90;2.20;;;;;;;;;;5043258;27;87971;-59
2022/12/10 08:43:17;;;;;;;2.10;1.10;;;;;;;;;;5043572;27;87011;-59
2022/12/10 08:45:46;;;;;;;2.03;1.53;;;;;;;;;;5046227;27;88917;-59
2022/12/10 08:48:14;;;;;;;1.97;1.17;;;;;;;;;;5069265;27;88811;-59
2022/12/10 08:50:42;;;;;;;2.10;1.37;;;;;;;;;;5061307;27;87104;-58
2022/12/10 08:53:11;;;;;;;1.73;1.40;;;;;;;;;;5060398;27;86915;-59
2022/12/10 08:55:40;;;;;;;4.37;2.47;;;;;;;;;;5054136;27;88891;-59
2022/12/10 08:58:17;;;;;;;2.77;1.93;;;;;;;;;;5057945;27;87844;-59
2022/12/10 09:00:45;;;;;;;3.13;2.13;;;;;;;;;;5041358;28;87062;-59
2022/12/10 09:03:14;;;;;;;2.20;1.63;;;;;;;;;;5041421;27;87020;-59
2022/12/10 09:05:43;;;;;;;3.23;1.53;;;;;;;;;;5040898;27;89909;-59
2022/12/10 09:08:11;;;;;;;2.27;1.47;;;;;;;;;;5041264;28;89739;-59
2022/12/10 09:10:39;;;;;;;3.00;1.37;;;;;;;;;;5041090;27;89012;-60
2022/12/10 09:13:08;;;;;;;4.27;1.87;;;;;;;;;;5041149;28;87139;-59
2022/12/10 09:15:38;;;;;;;2.73;1.73;;;;;;;;;;5041298;28;88904;-59
2022/12/10 09:18:06;;;;;;;1.60;1.40;;;;;;;;;;5041408;27;88970;-59
2022/12/10 09:20:35;;;;;;;3.43;2.03;;;;;;;;;;5040842;27;86999;-59
2022/12/10 09:23:03;;;;;;;2.20;1.30;;;;;;;;;;5041779;27;86164;-58
2022/12/10 09:25:31;;;;;;;1.83;1.40;;;;;;;;;;5041162;28;89132;-59
2022/12/10 09:28:00;;;;;;;2.83;1.80;;;;;;;;;;5041340;27;88608;-60
2022/12/10 09:30:28;;;;;;;6.23;1.60;;;;;;;;;;5040581;27;88322;-59
2022/12/10 09:32:58;;;;;;;3.77;2.13;;;;;;;;;;5040825;27;87176;-59
2022/12/10 09:35:27;;;;;;;2.83;1.80;;;;;;;;;;5040728;28;89106;-59
2022/12/10 09:37:56;;;;;;;5.27;1.63;;;;;;;;;;5057597;27;87749;-59
2022/12/10 09:40:25;;;;;;;2.47;1.50;;;;;;;;;;5059730;27;87089;-59
2022/12/10 09:42:54;;;;;;;3.30;1.80;;;;;;;;;;5041847;27;87051;-61
2022/12/10 09:45:25;;;;;;;3.00;1.70;;;;;;;;;;5056622;27;89182;-58
2022/12/10 09:47:56;;;;;;;3.93;1.70;;;;;;;;;;5042263;27;88899;-60
2022/12/10 09:50:27;;;;;;;2.00;1.57;;;;;;;;;;5048090;27;87193;-60
2022/12/10 09:52:57;;;;;;;2.57;1.27;;;;;;;;;;5046493;27;87113;-61
2022/12/10 09:55:28;;;;;;;2.83;1.50;;;;;;;;;;5044454;27;90121;-60
2022/12/10 09:57:56;;;;;;;4.27;2.00;;;;;;;;;;5052627;27;90178;-60
2022/12/10 10:00:25;;;;;;;4.77;2.20;;;;;;;;;;5052528;27;88478;-60
2022/12/10 10:02:53;;;;;;;3.07;1.40;;;;;;;;;;5044822;27;87051;-60
2022/12/10 10:05:23;;;;;;;2.50;1.47;;;;;;;;;;5040493;27;89672;-60
2022/12/10 10:07:54;;;;;;;3.67;2.23;;;;;;;;;;5040398;28;88968;-59
2022/12/10 10:10:26;;;;;;;2.53;1.77;;;;;;;;;;5040244;28;87007;-60
2022/12/10 10:12:56;;;;;;;3.33;1.87;;;;;;;;;;5040914;28;86383;-60
2022/12/10 10:15:26;;;;;;;3.33;1.57;;;;;;;;;;5040718;28;89138;-60
2022/12/10 10:17:55;;;;;;;4.70;1.83;;;;;;;;;;5040375;27;88628;-60
2022/12/10 10:20:23;;;;;;;2.90;2.13;;;;;;;;;;5039548;28;88173;-60
2022/12/10 10:22:53;;;;;;;1.57;1.10;;;;;;;;;;5039830;28;88075;-60
2022/12/10 10:25:21;;;;;;;2.70;1.63;;;;;;;;;;5040527;27;88427;-60
2022/12/10 10:27:49;;;;;;;1.47;1.13;;;;;;;;;;5040908;27;88619;-59
2022/12/10 10:30:18;;;;;;;2.87;1.60;;;;;;;;;;5040550;27;86938;-60
2022/12/10 10:32:51;;;;;;;2.27;1.73;;;;;;;;;;5039778;27;87055;-60
2022/12/10 10:35:23;;;;;;;4.57;1.30;;;;;;;;;;5058326;27;88300;-60
2022/12/10 10:37:51;;;;;;;3.87;2.67;;;;;;;;;;5082176;27;87410;-59
2022/12/10 10:40:25;;;;;;;2.57;1.47;;;;;;;;;;5081342;27;86965;-59
2022/12/10 10:42:53;;;;;;;2.70;1.80;;;;;;;;;;5079575;27;87065;-60
2022/12/10 10:45:35;;;;;;;3.90;1.60;;;;;;;;;;5054309;27;88885;-59
2022/12/10 10:48:08;;;;;;;3.03;1.80;;;;;;;;;;5045703;27;89460;-60
2022/12/10 10:50:38;;;;;;;2.30;1.03;;;;;;;;;;5040031;28;87076;-59
2022/12/10 10:53:25;;;;;;;2.27;1.90;;;;;;;;;;5040290;28;87068;-59
2022/12/10 10:55:55;;;;;;;2.80;1.40;;;;;;;;;;5040103;28;87233;-59
2022/12/10 10:58:24;;;;;;;2.80;1.40;;;;;;;;;;5043547;28;89011;-59
2022/12/10 11:00:55;;;;;;;1.73;1.53;;;;;;;;;;5044156;27;87502;-60
2022/12/10 11:03:24;;;;;;;2.00;1.30;;;;;;;;;;5044447;28;86228;-59
2022/12/10 11:05:52;;;;;;;3.10;1.97;;;;;;;;;;5043888;27;89698;-59
2022/12/10 11:08:21;;;;;;;3.27;1.87;;;;;;;;;;5043603;27;88932;-60
2022/12/10 11:10:50;;;;;;;1.93;1.30;;;;;;;;;;5043312;28;87881;-59
2022/12/10 11:13:25;;;;;;;3.10;1.20;;;;;;;;;;5043855;27;87084;-59
2022/12/10 11:15:57;;;;;;;2.10;1.50;;;;;;;;;;5043655;27;88163;-59
2022/12/10 11:18:26;;;;;;;2.17;1.27;;;;;;;;;;5043470;28;88782;-59
2022/12/10 11:20:59;;;;;;;2.43;1.70;;;;;;;;;;5043574;28;87097;-59
2022/12/10 11:23:29;;;;;;;1.30;1.20;;;;;;;;;;5043124;27;87065;-60
2022/12/10 11:25:59;;;;;;;2.13;1.30;;;;;;;;;;5043086;27;89029;-59
2022/12/10 11:28:33;;;;;;;3.60;1.40;;;;;;;;;;5042986;27;88702;-59
2022/12/10 11:31:07;;;;;;;1.30;1.20;;;;;;;;;;5043099;28;87085;-59
2022/12/10 11:33:36;;;;;;;2.43;1.80;;;;;;;;;;5043227;27;87079;-59
2022/12/10 11:36:07;;;;;;;3.07;1.80;;;;;;;;;;5042397;28;88798;-59
2022/12/10 11:38:39;;;;;;;3.60;1.60;;;;;;;;;;5042927;28;89864;-59
2022/12/10 11:41:09;;;;;;;1.73;1.20;;;;;;;;;;5043361;27;87068;-59
2022/12/10 11:43:42;;;;;;;2.93;2.00;;;;;;;;;;5043426;27;87006;-58
2022/12/10 11:46:14;;;;;;;4.37;1.53;;;;;;;;;;5042452;27;89285;-59
2022/12/10 11:48:47;;;;;;;2.07;1.23;;;;;;;;;;5042635;27;88756;-58
2022/12/10 11:51:17;;;;;;;3.83;1.67;;;;;;;;;;5042625;28;87055;-58
2022/12/10 11:53:49;;;;;;;1.93;1.13;;;;;;;;;;5043141;28;86313;-57
2022/12/10 11:56:20;;;;;;;2.90;2.20;;;;;;;;;;5042715;28;88657;-57
2022/12/10 11:58:58;;;;;;;1.70;1.40;;;;;;;;;;5042515;28;88831;-59
2022/12/10 12:01:29;;;;;;;2.13;1.40;;;;;;;;;;5042449;28;88046;-58
2022/12/10 12:04:01;;;;;;;2.20;1.40;;;;;;;;;;5043179;27;86896;-58
2022/12/10 12:06:34;;;;;;;3.80;1.73;;;;;;;;;;5042172;27;89008;-58
2022/12/10 12:09:04;;;;;;;2.83;1.20;;;;;;;;;;5041968;27;87736;-59
2022/12/10 12:11:41;;;;;;;2.33;1.17;;;;;;;;;;5042605;28;86919;-57
2022/12/10 12:14:15;;;;;;;2.93;1.70;;;;;;;;;;5042901;28;87071;-57
2022/12/10 12:16:44;;;;;;;2.47;1.50;;;;;;;;;;5042057;27;88281;-58
2022/12/10 12:19:13;;;;;;;3.07;1.07;;;;;;;;;;5042933;28;88843;-57
2022/12/10 12:21:42;;;;;;;2.37;1.60;;;;;;;;;;5042587;27;86993;-58
2022/12/10 12:24:11;;;;;;;3.40;1.33;;;;;;;;;;5042270;28;87091;-58
2022/12/10 12:26:40;;;;;;;4.23;2.23;;;;;;;;;;5041325;28;90136;-57
2022/12/10 12:29:13;;;;;;;3.87;1.70;;;;;;;;;;5041942;27;89697;-57
2022/12/10 12:31:42;;;;;;;2.60;1.90;;;;;;;;;;5042735;28;87133;-57
2022/12/10 12:34:14;;;;;;;3.73;1.40;;;;;;;;;;5042462;27;87021;-58
2022/12/10 12:36:42;;;;;;;2.27;1.33;;;;;;;;;;5042462;28;89309;-58
2022/12/10 12:39:15;;;;;;;2.83;1.10;;;;;;;;;;5042365;27;88611;-57
2022/12/10 12:41:46;;;;;;;2.50;1.93;;;;;;;;;;5041857;28;87004;-56
2022/12/10 12:44:16;;;;;;;2.63;1.47;;;;;;;;;;5041848;27;86165;-57
2022/12/10 12:46:45;;;;;;;3.83;1.40;;;;;;;;;;5041820;28;88260;-58
2022/12/10 12:49:15;;;;;;;1.50;1.23;;;;;;;;;;5041846;27;88906;-57
2022/12/10 12:51:46;;;;;;;1.90;1.33;;;;;;;;;;5041673;27;87957;-58
2022/12/10 12:54:14;;;;;;;3.47;1.77;;;;;;;;;;5042040;28;86929;-58
2022/12/10 12:56:50;;;;;;;2.07;1.17;;;;;;;;;;5041434;27;89132;-57
2022/12/10 12:59:22;;;;;;;1.73;1.17;;;;;;;;;;5040595;28;88826;-58
2022/12/10 13:01:51;;;;;;;1.90;1.43;;;;;;;;;;5040281;27;87367;-57
2022/12/10 13:04:19;;;;;;;1.23;0.90;;;;;;;;;;5040732;28;87120;-61
2022/12/10 13:07:02;;;;;;;3.43;1.37;;;;;;;;;;5039840;27;89164;-58
2022/12/10 13:09:31;;;;;;;1.50;0.90;;;;;;;;;;5041406;28;88126;-58
2022/12/10 13:12:18;;;;;;;2.20;1.67;;;;;;;;;;5041640;27;87085;-58
2022/12/10 13:14:57;;;;;;;2.00;1.37;;;;;;;;;;5041723;28;86954;-57
2022/12/10 13:17:29;;;;;;;2.77;1.63;;;;;;;;;;5040943;28;90026;-58
2022/12/10 13:20:12;;;;;;;1.93;1.30;;;;;;;;;;5040750;27;89925;-58
2022/12/10 13:22:45;;;;;;;3.77;1.60;;;;;;;;;;5040362;28;87517;-57
2022/12/10 13:25:14;;;;;;;1.93;1.70;;;;;;;;;;5041372;27;86998;-59
2022/12/10 13:27:43;;;;;;;2.13;1.60;;;;;;;;;;5041062;27;88776;-57
2022/12/10 13:30:37;;;;;;;3.43;1.77;;;;;;;;;;5041255;28;88926;-60
2022/12/10 13:33:07;;;;;;;2.63;1.67;;;;;;;;;;5041444;28;87023;-59
2022/12/10 13:35:43;;;;;;;1.57;0.90;;;;;;;;;;5041979;27;86175;-57
2022/12/10 13:38:19;;;;;;;1.27;1.10;;;;;;;;;;5041115;27;88244;-60
2022/12/10 13:46:32;;;;;;;2.90;1.40;;;;;;;;;;5041085;28;87068;-60
2022/12/10 13:49:00;;;;;;;4.50;1.37;;;;;;;;;;5041031;27;88019;-59
2022/12/10 13:51:34;;;;;;;2.33;1.40;;;;;;;;;;5040403;28;87604;-60
2022/12/10 13:54:06;;;;;;;2.67;1.27;;;;;;;;;;5041156;28;87143;-60
2022/12/10 13:56:36;;;;;;;2.63;1.50;;;;;;;;;;5041604;28;86951;-59
2022/12/10 13:59:11;;;;;;;2.73;1.30;;;;;;;;;;5041016;28;88279;-60
2022/12/10 14:01:42;;;;;;;1.93;1.30;;;;;;;;;;5041034;27;88026;-60
2022/12/10 14:04:35;;;;;;;2.63;1.37;;;;;;;;;;5041276;27;87043;-60
2022/12/10 14:07:03;;;;;;;3.40;2.03;;;;;;;;;;5034900;28;87024;-60
2022/12/10 14:09:34;;;;;;;3.47;1.80;;;;;;;;;;5040445;28;88982;-60
2022/12/10 14:12:03;;;;;;;2.07;1.50;;;;;;;;;;5039590;27;89827;-60
2022/12/10 14:14:32;;;;;;;1.73;1.27;;;;;;;;;;5039268;28;87347;-60
2022/12/10 14:17:02;;;;;;;2.87;1.27;;;;;;;;;;5040024;27;87160;-60
2022/12/10 14:19:33;;;;;;;2.30;1.43;;;;;;;;;;5039138;27;88233;-60
2022/12/10 14:22:05;;;;;;;3.20;1.90;;;;;;;;;;5038156;28;89072;-60
2022/12/10 14:24:34;;;;;;;1.93;1.23;;;;;;;;;;5038531;27;87033;-60
2022/12/10 14:27:03;;;;;;;1.50;1.03;;;;;;;;;;5038511;27;86350;-60
2022/12/10 14:29:31;;;;;;;2.23;1.27;;;;;;;;;;5038532;27;87817;-60
2022/12/10 14:32:00;;;;;;;2.77;1.47;;;;;;;;;;5042714;27;87103;-60
2022/12/10 14:34:29;;;;;;;3.73;1.83;;;;;;;;;;5043779;27;87998;-60
2022/12/10 14:36:58;;;;;;;2.30;1.60;;;;;;;;;;5044024;27;87038;-61
2022/12/10 14:39:27;;;;;;;2.87;1.87;;;;;;;;;;5043576;27;88094;-60
2022/12/10 14:41:57;;;;;;;3.23;1.57;;;;;;;;;;5044273;28;88986;-60
2022/12/10 14:44:25;;;;;;;3.90;2.07;;;;;;;;;;5044173;27;87084;-60
2022/12/10 14:46:54;;;;;;;4.73;1.90;;;;;;;;;;5044515;27;87215;-60
2022/12/10 14:49:23;;;;;;;3.67;2.03;;;;;;;;;;5044680;27;89180;-60
2022/12/10 14:51:53;;;;;;;2.03;1.73;;;;;;;;;;5044237;27;88928;-60
2022/12/10 14:54:25;;;;;;;2.77;1.90;;;;;;;;;;5043990;28;86914;-59
2022/12/10 14:56:54;;;;;;;2.63;1.00;;;;;;;;;;5043371;27;87108;-60
2022/12/10 14:59:22;;;;;;;3.60;2.03;;;;;;;;;;5042738;28;90032;-60
2022/12/10 15:01:51;;;;;;;3.03;1.73;;;;;;;;;;5043851;28;89771;-60
2022/12/10 15:04:20;;;;;;;4.70;1.80;;;;;;;;;;5044087;27;87095;-60
2022/12/10 15:06:55;;;;;;;3.27;1.50;;;;;;;;;;5043654;28;87140;-60